Atlantic Nyala — 9HYD9 — position and weather

sailwx.info

Track history (hours):
 
Tides and Currents Weather Stations Pressure Air Temp Water Temp Dewpoint Dewpoint Depression Visibility Wind Speed Wind Dir Waves Ship Positions

Atlantic Nyala

Last reported at 2015-Mar-01 00:07 UTC. Time now 2015-Mar-01 08:32 UTC.
Position N 50°10' W 001°52'.

Length 173 m; draft 10.6 m.

Type: Ship. MMSI: 249692000.

Date/timePositionNaut miles runAvg speedWind from/ knotsBaromVisibWave heightAir tempDewpointWater temp
2015-Mar-01 00:07N 50°10' W 001°52'5012.9
2015-Feb-28 20:17N 50°24' W 000°37'1012.5
2015-Feb-28 19:31N 50°26' W 000°23'1511.7
2015-Feb-28 18:16N 50°30' W 000°00'810.7
2015-Feb-28 17:29N 50°32' E 000°12'910.3
2015-Feb-28 16:34N 50°35' E 000°26'2210.8
2015-Feb-28 14:33N 50°47' E 000°55'1212.2
2015-Feb-28 13:33N 50°54' E 001°10'1111.1
2015-Feb-28 12:33N 51°02' E 001°24'1110.5
2015-Feb-28 11:34N 51°08' E 001°36'1110.6
2015-Feb-28 10:34N 51°16' E 001°48'1111.0
2015-Feb-28 09:34N 51°25' E 001°58'1111.4
2015-Feb-28 08:34N 51°34' E 002°08'1211.8
2015-Feb-28 07:33N 51°44' E 002°20'3013.0
2015-Feb-28 05:15N 52°07' E 002°52'34013.0
2015-Feb-27 03:05N 57°03' E 007°40'2312.3
2015-Feb-27 01:11N 57°16' E 008°15'912.2
2015-Feb-27 00:25N 57°21' E 008°30'3912.1
2015-Feb-26 21:14N 57°41' E 009°31'2212.1
2015-Feb-26 19:22N 57°50' E 010°10'1113.3
2015-Feb-26 18:33N 57°50' E 010°30'1313.3
2015-Feb-26 17:33N 57°46' E 010°54'1414.4
2015-Feb-26 16:33N 57°36' E 011°13'1414.2
2015-Feb-26 15:33N 57°25' E 011°29'1414.2
2015-Feb-26 14:33N 57°11' E 011°38'1414.3
2015-Feb-26 13:33N 56°58' E 011°47'1414.0
2015-Feb-26 12:33N 56°44' E 011°53'1514.5
2015-Feb-26 11:33N 56°32' E 011°40'1514.4
2015-Feb-26 10:33N 56°19' E 011°27'8410.0
2015-Feb-26 02:05N 54°57' E 010°55'1710.8
2015-Feb-26 00:31N 54°40' E 010°48'1110.4
2015-Feb-25 23:29N 54°36' E 011°05'1010.8
2015-Feb-25 22:33N 54°33' E 011°22'1110.8
2015-Feb-25 21:33N 54°28' E 011°39'1110.7
2015-Feb-25 20:33N 54°26' E 011°57'1110.7
2015-Feb-25 19:33N 54°31' E 012°13'1312.7
2015-Feb-25 18:33N 54°41' E 012°27'1312.9
2015-Feb-25 17:33N 54°48' E 012°46'1313.2
2015-Feb-25 16:33N 54°53' E 013°07'1313.0
2015-Feb-25 15:33N 54°57' E 013°29'1312.7
2015-Feb-25 14:31N 55°02' E 013°50'1512.3
2015-Feb-25 13:16N 55°10' E 014°13'1012.7
2015-Feb-25 12:28N 55°18' E 014°24'1312.5
2015-Feb-25 11:27N 55°27' E 014°39'1112.7
2015-Feb-25 10:33N 55°33' E 014°56'1412.4
2015-Feb-25 09:27N 55°40' E 015°17'34412.3
2015-Feb-24 05:29N 59°35' E 023°06'1213.3
2015-Feb-24 04:33N 59°39' E 023°29'1413.5
2015-Feb-24 03:33N 59°43' E 023°55'1413.7
2015-Feb-24 02:33N 59°47' E 024°21'1413.8
2015-Feb-24 01:33N 59°49' E 024°48'4113.7
2015-Feb-23 22:33N 59°58' E 026°08'1413.9
2015-Feb-23 21:34N 60°01' E 026°35'1414.1
2015-Feb-23 20:33N 59°60' E 027°03'1413.9
2015-Feb-23 19:33N 60°06' E 027°27'79 9.9
2015-Feb-23 11:33N 59°55' E 030°03'5 4.9
2015-Feb-23 10:33N 59°53' E 030°12'0 0.0
2015-Feb-23 09:33N 59°53' E 030°12'0 0.0
2015-Feb-23 08:33N 59°53' E 030°12'0 0.0
2015-Feb-23 07:33N 59°53' E 030°12'0 0.0
2015-Feb-23 06:33N 59°53' E 030°12'0 0.0
2015-Feb-23 05:33N 59°53' E 030°12'0 0.0
2015-Feb-23 04:33N 59°53' E 030°12'0 0.0
2015-Feb-23 03:33N 59°53' E 030°12'0 0.0
2015-Feb-23 02:33N 59°53' E 030°12'0 0.0
2015-Feb-23 01:33N 59°53' E 030°12'0 0.0
2015-Feb-23 00:33N 59°53' E 030°12'0 0.0
2015-Feb-22 23:33N 59°53' E 030°12'0 0.0
2015-Feb-22 22:33N 59°53' E 030°12'0 0.0
2015-Feb-22 21:33N 59°53' E 030°12'0 0.0
2015-Feb-22 20:33N 59°53' E 030°12'0 0.0
2015-Feb-22 19:33N 59°53' E 030°12'0 0.0
2015-Feb-22 18:33N 59°53' E 030°12'0 0.0
2015-Feb-22 17:33N 59°53' E 030°12'0 0.0
2015-Feb-22 16:33N 59°53' E 030°12'0 0.0
2015-Feb-22 15:33N 59°53' E 030°12'0 0.0
2015-Feb-22 14:33N 59°53' E 030°12'0 0.0
2015-Feb-22 13:33N 59°53' E 030°12'0 0.0
2015-Feb-22 12:33N 59°53' E 030°12'0 0.0
2015-Feb-22 11:33N 59°53' E 030°12'0 0.0
2015-Feb-22 10:27N 59°53' E 030°12'0 0.0
2015-Feb-22 09:33N 59°53' E 030°12'0 0.0
2015-Feb-22 08:33N 59°53' E 030°12'0 0.0
2015-Feb-22 07:33N 59°53' E 030°12'0 0.0
2015-Feb-22 06:27N 59°53' E 030°12'0 0.0
2015-Feb-22 05:33N 59°53' E 030°12'0 0.0
2015-Feb-22 04:30N 59°53' E 030°12'0 0.0
2015-Feb-22 03:33N 59°53' E 030°12'0 0.0
2015-Feb-22 02:33N 59°53' E 030°12'0 0.0
2015-Feb-22 01:33N 59°53' E 030°12'0 0.0
2015-Feb-22 00:33N 59°53' E 030°12'0 0.0
2015-Feb-21 23:33N 59°53' E 030°12'0 0.0
2015-Feb-21 22:33N 59°53' E 030°12'0 0.0
2015-Feb-21 21:33N 59°53' E 030°12'0 0.0
2015-Feb-21 20:33N 59°53' E 030°12'0 0.0
2015-Feb-21 19:30N 59°53' E 030°12'0 0.0
2015-Feb-21 18:33N 59°53' E 030°12'0 0.0
2015-Feb-21 17:30N 59°53' E 030°12'0 0.0
2015-Feb-21 16:27N 59°53' E 030°12'0 0.0
2015-Feb-21 15:33N 59°53' E 030°12'0 0.0
2015-Feb-21 14:33N 59°53' E 030°12'0 0.0
2015-Feb-21 13:33N 59°53' E 030°12'0 0.0
2015-Feb-21 12:33N 59°53' E 030°12'0 0.0
2015-Feb-21 11:33N 59°53' E 030°12'0 0.0
2015-Feb-21 10:33N 59°53' E 030°12'0 0.0
2015-Feb-21 09:33N 59°53' E 030°12'0 0.0
2015-Feb-21 08:33N 59°53' E 030°12'0 0.0
2015-Feb-21 07:33N 59°53' E 030°12'0 0.0
2015-Feb-21 06:33N 59°53' E 030°12'0 0.0
2015-Feb-21 05:33N 59°53' E 030°12'0 0.0
2015-Feb-21 04:33N 59°53' E 030°12'0 0.0
2015-Feb-21 03:33N 59°53' E 030°12'0 0.0
2015-Feb-21 02:33N 59°53' E 030°12'0 0.0
2015-Feb-21 01:33N 59°53' E 030°12'0 0.0
2015-Feb-21 00:33N 59°53' E 030°12'0 0.0
2015-Feb-20 23:33N 59°53' E 030°12'0 0.0
2015-Feb-20 22:33N 59°53' E 030°12'0 0.0
2015-Feb-20 21:33N 59°53' E 030°12'0 0.0
2015-Feb-20 20:33N 59°53' E 030°12'0 0.0
2015-Feb-20 19:33N 59°53' E 030°12'0 0.0
2015-Feb-20 18:33N 59°53' E 030°12'0 0.0
2015-Feb-20 17:33N 59°53' E 030°12'0 0.0
2015-Feb-20 16:33N 59°53' E 030°12'0 0.0
2015-Feb-20 15:33N 59°53' E 030°12'2 2.0
2015-Feb-20 14:30N 59°55' E 030°14'0 0.0
2015-Feb-20 13:33N 59°55' E 030°15'0 0.0
2015-Feb-20 12:33N 59°55' E 030°15'0 0.0
2015-Feb-20 11:33N 59°55' E 030°15'0 0.0
2015-Feb-20 10:33N 59°55' E 030°15'0 0.0
2015-Feb-20 09:33N 59°55' E 030°15'0 0.0
2015-Feb-20 08:33N 59°55' E 030°15'0 0.0
2015-Feb-20 07:33N 59°55' E 030°15'0 0.0
2015-Feb-20 06:33N 59°55' E 030°15'0 0.0
2015-Feb-20 05:33N 59°55' E 030°15'0 0.0
2015-Feb-20 04:30N 59°55' E 030°15'0 0.0
2015-Feb-20 03:30N 59°55' E 030°15'0 0.0
2015-Feb-20 02:33N 59°55' E 030°15'0 0.0
2015-Feb-20 01:33N 59°55' E 030°15'0 0.0
2015-Feb-20 00:15N 59°55' E 030°15'0 0.0
2015-Feb-19 23:33N 59°55' E 030°15'0 0.0
2015-Feb-19 22:33N 59°55' E 030°15'0 0.0
2015-Feb-19 21:33N 59°55' E 030°15'0 0.0
2015-Feb-19 20:33N 59°55' E 030°15'0 0.0
2015-Feb-19 19:33N 59°55' E 030°15'0 0.0
2015-Feb-19 18:33N 59°55' E 030°15'0 0.0
2015-Feb-19 17:33N 59°55' E 030°15'0 0.0
2015-Feb-19 16:33N 59°55' E 030°15'0 0.0
2015-Feb-19 15:33N 59°55' E 030°15'0 0.0
2015-Feb-19 14:33N 59°55' E 030°15'0 0.0
2015-Feb-19 13:33N 59°55' E 030°15'0 0.0
2015-Feb-19 12:33N 59°55' E 030°15'0 0.0
2015-Feb-19 11:30N 59°55' E 030°15'0 0.0
2015-Feb-19 10:33N 59°55' E 030°15'0 0.0
2015-Feb-19 09:33N 59°55' E 030°15'0 0.0
2015-Feb-19 08:33N 59°55' E 030°15'0 0.0
2015-Feb-19 07:24N 59°55' E 030°15'0 0.0
2015-Feb-19 05:15N 59°55' E 030°15'0 0.0
2015-Feb-19 04:30N 59°55' E 030°15'0 0.0
2015-Feb-19 03:33N 59°55' E 030°15'0 0.0
2015-Feb-19 02:33N 59°55' E 030°15'0 0.0
2015-Feb-19 01:30N 59°55' E 030°15'0 0.0
2015-Feb-19 00:33N 59°55' E 030°15'  
Track history (hours):
 
Tides and Currents Weather Stations Pressure Air Temp Water Temp Dewpoint Dewpoint Depression Visibility Wind Speed Wind Dir Waves Ship Positions

Atlantic Nyala

Last reported at 2015-Mar-01 00:07 UTC. Time now 2015-Mar-01 08:32 UTC.
Position N 50°10' W 001°52'.

Length 173 m; draft 10.6 m.

Type: Ship. MMSI: 249692000.

Date/timePositionNaut miles runAvg speedWind from/ knotsBaromVisibWave heightAir tempDewpointWater temp
2015-Mar-01 00:07N 50°10' W 001°52'5012.9
2015-Feb-28 20:17N 50°24' W 000°37'1012.5
2015-Feb-28 19:31N 50°26' W 000°23'1511.7
2015-Feb-28 18:16N 50°30' W 000°00'810.7
2015-Feb-28 17:29N 50°32' E 000°12'910.3
2015-Feb-28 16:34N 50°35' E 000°26'2210.8
2015-Feb-28 14:33N 50°47' E 000°55'1212.2
2015-Feb-28 13:33N 50°54' E 001°10'1111.1
2015-Feb-28 12:33N 51°02' E 001°24'1110.5
2015-Feb-28 11:34N 51°08' E 001°36'1110.6
2015-Feb-28 10:34N 51°16' E 001°48'1111.0
2015-Feb-28 09:34N 51°25' E 001°58'1111.4
2015-Feb-28 08:34N 51°34' E 002°08'1211.8
2015-Feb-28 07:33N 51°44' E 002°20'3013.0
2015-Feb-28 05:15N 52°07' E 002°52'34013.0
2015-Feb-27 03:05N 57°03' E 007°40'2312.3
2015-Feb-27 01:11N 57°16' E 008°15'912.2
2015-Feb-27 00:25N 57°21' E 008°30'3912.1
2015-Feb-26 21:14N 57°41' E 009°31'2212.1
2015-Feb-26 19:22N 57°50' E 010°10'1113.3
2015-Feb-26 18:33N 57°50' E 010°30'1313.3
2015-Feb-26 17:33N 57°46' E 010°54'1414.4
2015-Feb-26 16:33N 57°36' E 011°13'1414.2
2015-Feb-26 15:33N 57°25' E 011°29'1414.2
2015-Feb-26 14:33N 57°11' E 011°38'1414.3
2015-Feb-26 13:33N 56°58' E 011°47'1414.0
2015-Feb-26 12:33N 56°44' E 011°53'1514.5
2015-Feb-26 11:33N 56°32' E 011°40'1514.4
2015-Feb-26 10:33N 56°19' E 011°27'8410.0
2015-Feb-26 02:05N 54°57' E 010°55'1710.8
2015-Feb-26 00:31N 54°40' E 010°48'1110.4
2015-Feb-25 23:29N 54°36' E 011°05'1010.8
2015-Feb-25 22:33N 54°33' E 011°22'1110.8
2015-Feb-25 21:33N 54°28' E 011°39'1110.7
2015-Feb-25 20:33N 54°26' E 011°57'1110.7
2015-Feb-25 19:33N 54°31' E 012°13'1312.7
2015-Feb-25 18:33N 54°41' E 012°27'1312.9
2015-Feb-25 17:33N 54°48' E 012°46'1313.2
2015-Feb-25 16:33N 54°53' E 013°07'1313.0
2015-Feb-25 15:33N 54°57' E 013°29'1312.7
2015-Feb-25 14:31N 55°02' E 013°50'1512.3
2015-Feb-25 13:16N 55°10' E 014°13'1012.7
2015-Feb-25 12:28N 55°18' E 014°24'1312.5
2015-Feb-25 11:27N 55°27' E 014°39'1112.7
2015-Feb-25 10:33N 55°33' E 014°56'1412.4
2015-Feb-25 09:27N 55°40' E 015°17'34412.3
2015-Feb-24 05:29N 59°35' E 023°06'1213.3
2015-Feb-24 04:33N 59°39' E 023°29'1413.5
2015-Feb-24 03:33N 59°43' E 023°55'1413.7
2015-Feb-24 02:33N 59°47' E 024°21'1413.8
2015-Feb-24 01:33N 59°49' E 024°48'4113.7
2015-Feb-23 22:33N 59°58' E 026°08'1413.9
2015-Feb-23 21:34N 60°01' E 026°35'1414.1
2015-Feb-23 20:33N 59°60' E 027°03'1413.9
2015-Feb-23 19:33N 60°06' E 027°27'79 9.9
2015-Feb-23 11:33N 59°55' E 030°03'5 4.9
2015-Feb-23 10:33N 59°53' E 030°12'0 0.0
2015-Feb-23 09:33N 59°53' E 030°12'0 0.0
2015-Feb-23 08:33N 59°53' E 030°12'0 0.0
2015-Feb-23 07:33N 59°53' E 030°12'0 0.0
2015-Feb-23 06:33N 59°53' E 030°12'0 0.0
2015-Feb-23 05:33N 59°53' E 030°12'0 0.0
2015-Feb-23 04:33N 59°53' E 030°12'0 0.0
2015-Feb-23 03:33N 59°53' E 030°12'0 0.0
2015-Feb-23 02:33N 59°53' E 030°12'0 0.0
2015-Feb-23 01:33N 59°53' E 030°12'0 0.0
2015-Feb-23 00:33N 59°53' E 030°12'0 0.0
2015-Feb-22 23:33N 59°53' E 030°12'0 0.0
2015-Feb-22 22:33N 59°53' E 030°12'0 0.0
2015-Feb-22 21:33N 59°53' E 030°12'0 0.0
2015-Feb-22 20:33N 59°53' E 030°12'0 0.0
2015-Feb-22 19:33N 59°53' E 030°12'0 0.0
2015-Feb-22 18:33N 59°53' E 030°12'0 0.0
2015-Feb-22 17:33N 59°53' E 030°12'0 0.0
2015-Feb-22 16:33N 59°53' E 030°12'0 0.0
2015-Feb-22 15:33N 59°53' E 030°12'0 0.0
2015-Feb-22 14:33N 59°53' E 030°12'0 0.0
2015-Feb-22 13:33N 59°53' E 030°12'0 0.0
2015-Feb-22 12:33N 59°53' E 030°12'0 0.0
2015-Feb-22 11:33N 59°53' E 030°12'0 0.0
2015-Feb-22 10:27N 59°53' E 030°12'0 0.0
2015-Feb-22 09:33N 59°53' E 030°12'0 0.0
2015-Feb-22 08:33N 59°53' E 030°12'0 0.0
2015-Feb-22 07:33N 59°53' E 030°12'0 0.0
2015-Feb-22 06:27N 59°53' E 030°12'0 0.0
2015-Feb-22 05:33N 59°53' E 030°12'0 0.0
2015-Feb-22 04:30N 59°53' E 030°12'0 0.0
2015-Feb-22 03:33N 59°53' E 030°12'0 0.0
2015-Feb-22 02:33N 59°53' E 030°12'0 0.0
2015-Feb-22 01:33N 59°53' E 030°12'0 0.0
2015-Feb-22 00:33N 59°53' E 030°12'0 0.0
2015-Feb-21 23:33N 59°53' E 030°12'0 0.0
2015-Feb-21 22:33N 59°53' E 030°12'0 0.0
2015-Feb-21 21:33N 59°53' E 030°12'0 0.0
2015-Feb-21 20:33N 59°53' E 030°12'0 0.0
2015-Feb-21 19:30N 59°53' E 030°12'0 0.0
2015-Feb-21 18:33N 59°53' E 030°12'0 0.0
2015-Feb-21 17:30N 59°53' E 030°12'0 0.0
2015-Feb-21 16:27N 59°53' E 030°12'0 0.0
2015-Feb-21 15:33N 59°53' E 030°12'0 0.0
2015-Feb-21 14:33N 59°53' E 030°12'0 0.0
2015-Feb-21 13:33N 59°53' E 030°12'0 0.0
2015-Feb-21 12:33N 59°53' E 030°12'0 0.0
2015-Feb-21 11:33N 59°53' E 030°12'0 0.0
2015-Feb-21 10:33N 59°53' E 030°12'0 0.0
2015-Feb-21 09:33N 59°53' E 030°12'0 0.0
2015-Feb-21 08:33N 59°53' E 030°12'0 0.0
2015-Feb-21 07:33N 59°53' E 030°12'0 0.0
2015-Feb-21 06:33N 59°53' E 030°12'0 0.0
2015-Feb-21 05:33N 59°53' E 030°12'0 0.0
2015-Feb-21 04:33N 59°53' E 030°12'0 0.0
2015-Feb-21 03:33N 59°53' E 030°12'0 0.0
2015-Feb-21 02:33N 59°53' E 030°12'0 0.0
2015-Feb-21 01:33N 59°53' E 030°12'0 0.0
2015-Feb-21 00:33N 59°53' E 030°12'0 0.0
2015-Feb-20 23:33N 59°53' E 030°12'0 0.0
2015-Feb-20 22:33N 59°53' E 030°12'0 0.0
2015-Feb-20 21:33N 59°53' E 030°12'0 0.0
2015-Feb-20 20:33N 59°53' E 030°12'0 0.0
2015-Feb-20 19:33N 59°53' E 030°12'0 0.0
2015-Feb-20 18:33N 59°53' E 030°12'0 0.0
2015-Feb-20 17:33N 59°53' E 030°12'0 0.0
2015-Feb-20 16:33N 59°53' E 030°12'0 0.0
2015-Feb-20 15:33N 59°53' E 030°12'2 2.0
2015-Feb-20 14:30N 59°55' E 030°14'0 0.0
2015-Feb-20 13:33N 59°55' E 030°15'0 0.0
2015-Feb-20 12:33N 59°55' E 030°15'0 0.0
2015-Feb-20 11:33N 59°55' E 030°15'0 0.0
2015-Feb-20 10:33N 59°55' E 030°15'0 0.0
2015-Feb-20 09:33N 59°55' E 030°15'0 0.0
2015-Feb-20 08:33N 59°55' E 030°15'0 0.0
2015-Feb-20 07:33N 59°55' E 030°15'0 0.0
2015-Feb-20 06:33N 59°55' E 030°15'0 0.0
2015-Feb-20 05:33N 59°55' E 030°15'0 0.0
2015-Feb-20 04:30N 59°55' E 030°15'0 0.0
2015-Feb-20 03:30N 59°55' E 030°15'0 0.0
2015-Feb-20 02:33N 59°55' E 030°15'0 0.0
2015-Feb-20 01:33N 59°55' E 030°15'0 0.0
2015-Feb-20 00:15N 59°55' E 030°15'0 0.0
2015-Feb-19 23:33N 59°55' E 030°15'0 0.0
2015-Feb-19 22:33N 59°55' E 030°15'0 0.0
2015-Feb-19 21:33N 59°55' E 030°15'0 0.0
2015-Feb-19 20:33N 59°55' E 030°15'0 0.0
2015-Feb-19 19:33N 59°55' E 030°15'0 0.0
2015-Feb-19 18:33N 59°55' E 030°15'0 0.0
2015-Feb-19 17:33N 59°55' E 030°15'0 0.0
2015-Feb-19 16:33N 59°55' E 030°15'0 0.0
2015-Feb-19 15:33N 59°55' E 030°15'0 0.0
2015-Feb-19 14:33N 59°55' E 030°15'0 0.0
2015-Feb-19 13:33N 59°55' E 030°15'0 0.0
2015-Feb-19 12:33N 59°55' E 030°15'0 0.0
2015-Feb-19 11:30N 59°55' E 030°15'0 0.0
2015-Feb-19 10:33N 59°55' E 030°15'0 0.0
2015-Feb-19 09:33N 59°55' E 030°15'0 0.0
2015-Feb-19 08:33N 59°55' E 030°15'0 0.0
2015-Feb-19 07:24N 59°55' E 030°15'0 0.0
2015-Feb-19 05:15N 59°55' E 030°15'0 0.0
2015-Feb-19 04:30N 59°55' E 030°15'0 0.0
2015-Feb-19 03:33N 59°55' E 030°15'0 0.0
2015-Feb-19 02:33N 59°55' E 030°15'0 0.0
2015-Feb-19 01:30N 59°55' E 030°15'0 0.0
2015-Feb-19 00:33N 59°55' E 030°15'  

Dump ship's entire track history